createdAt,value
2022-08-02T00:02:53.551Z,19.54
2022-08-02T00:06:55.703Z,19.41
2022-08-02T00:10:57.884Z,19.28
2022-08-02T00:15:00.155Z,19.26
2022-08-02T00:19:02.354Z,19.28
2022-08-02T00:23:04.504Z,19.36
2022-08-02T00:27:09.459Z,19.43
2022-08-02T00:31:11.845Z,19.45
2022-08-02T00:35:14.434Z,19.46
2022-08-02T00:39:34.177Z,19.50
2022-08-02T00:43:38.413Z,19.49
2022-08-02T00:47:40.577Z,19.51
2022-08-02T00:51:42.842Z,19.48
2022-08-02T00:55:45.133Z,19.40
2022-08-02T00:59:48.644Z,19.39
2022-08-02T01:03:50.847Z,19.43
2022-08-02T01:07:53.094Z,19.47
2022-08-02T01:11:55.689Z,19.51
2022-08-02T01:16:11.712Z,19.49
2022-08-02T01:20:47.775Z,19.43
2022-08-02T01:25:09.970Z,19.43
2022-08-02T01:29:21.060Z,19.43
2022-08-02T01:33:26.301Z,19.41
2022-08-02T01:37:35.514Z,19.36
2022-08-02T01:41:38.583Z,19.32
2022-08-02T01:45:43.646Z,19.29
2022-08-02T01:49:50.021Z,19.14
2022-08-02T01:53:52.676Z,19.03
2022-08-02T01:58:00.695Z,19.10
2022-08-02T02:02:07.657Z,19.20
2022-08-02T02:06:11.376Z,19.23
2022-08-02T02:10:16.429Z,19.22
2022-08-02T02:14:20.768Z,19.17
2022-08-02T02:18:27.652Z,19.10
2022-08-02T02:22:29.845Z,19.16
2022-08-02T02:26:34.481Z,19.20
2022-08-02T02:30:49.764Z,19.13
2022-08-02T02:34:53.629Z,18.96
2022-08-02T02:38:59.350Z,18.84
2022-08-02T02:43:02.649Z,18.79
2022-08-02T02:47:06.123Z,18.88
2022-08-02T02:51:13.865Z,19.00
2022-08-02T02:55:18.945Z,19.13
2022-08-02T02:59:21.307Z,19.17
2022-08-02T03:03:24.450Z,19.17
2022-08-02T03:07:26.851Z,19.25
2022-08-02T03:11:30.267Z,19.31
2022-08-02T03:15:34.320Z,19.35
2022-08-02T03:19:36.842Z,19.36
2022-08-02T03:23:40.782Z,19.28
2022-08-02T03:27:43.079Z,19.33
2022-08-02T03:31:46.587Z,19.33
2022-08-02T03:35:50.773Z,19.32
2022-08-02T03:39:54.283Z,19.31
2022-08-02T03:43:57.862Z,19.28
2022-08-02T03:48:01.169Z,19.27
2022-08-02T03:52:03.849Z,19.25
2022-08-02T03:56:06.631Z,19.26
2022-08-02T04:00:10.886Z,19.31
2022-08-02T04:04:15.917Z,19.34
2022-08-02T04:08:35.781Z,19.36
2022-08-02T04:12:39.652Z,19.36
2022-08-02T04:16:48.029Z,19.39
2022-08-02T04:20:52.685Z,19.59
2022-08-02T04:24:59.163Z,19.83
2022-08-02T04:29:02.272Z,20.19
2022-08-02T04:33:05.411Z,20.33
2022-08-02T04:37:07.658Z,20.42
2022-08-02T04:41:09.952Z,20.49
2022-08-02T04:45:16.507Z,20.76
2022-08-02T04:49:19.369Z,20.91
2022-08-02T04:53:21.623Z,21.18
2022-08-02T04:57:52.508Z,21.41
2022-08-02T05:01:55.399Z,21.67
2022-08-02T05:05:58.069Z,21.84
2022-08-02T05:10:00.245Z,21.95
2022-08-02T05:14:05.336Z,22.18
2022-08-02T05:18:07.638Z,22.58
2022-08-02T05:22:10.034Z,22.87
2022-08-02T05:26:12.418Z,23.10
2022-08-02T05:30:14.866Z,23.35
2022-08-02T05:34:17.229Z,23.67
2022-08-02T05:38:19.829Z,23.78
2022-08-02T05:42:31.981Z,23.71
2022-08-02T05:46:34.536Z,23.70
2022-08-02T05:50:44.475Z,23.71
2022-08-02T05:54:54.213Z,23.71
2022-08-02T05:59:03.148Z,23.73
2022-08-02T06:03:16.437Z,23.73
2022-08-02T06:07:21.870Z,23.79
2022-08-02T06:11:30.231Z,23.87
2022-08-02T06:15:34.833Z,23.95
2022-08-02T06:19:51.858Z,24.07
2022-08-02T06:23:58.847Z,24.13
2022-08-02T06:28:04.550Z,24.10
2022-08-02T06:32:24.803Z,24.27
2022-08-02T06:37:01.157Z,24.34
2022-08-02T06:41:06.999Z,24.37
2022-08-02T06:45:11.247Z,24.47
2022-08-02T06:49:13.541Z,24.53
2022-08-02T06:53:15.698Z,24.64
2022-08-02T06:57:17.804Z,24.68
2022-08-02T07:01:20.175Z,24.69
2022-08-02T07:05:22.939Z,24.66
2022-08-02T07:09:25.045Z,24.65
2022-08-02T07:13:30.990Z,24.65
2022-08-02T07:17:34.044Z,24.68
2022-08-02T07:21:56.290Z,24.82
2022-08-02T07:26:02.325Z,24.95
2022-08-02T07:30:07.315Z,25.09
2022-08-02T07:34:09.457Z,25.24
2022-08-02T07:38:11.630Z,25.37
2022-08-02T07:42:15.769Z,25.60
2022-08-02T07:46:17.984Z,25.86
2022-08-02T07:50:21.234Z,26.04
2022-08-02T07:54:24.548Z,26.14
2022-08-02T07:58:26.710Z,26.30
2022-08-02T08:02:28.828Z,26.58
2022-08-02T08:06:31.068Z,26.76
2022-08-02T08:10:33.345Z,26.71
2022-08-02T08:14:36.686Z,26.68
2022-08-02T08:18:39.045Z,26.40
2022-08-02T08:22:41.293Z,25.94
2022-08-02T08:26:43.527Z,25.88
2022-08-02T08:30:47.134Z,26.14
2022-08-02T08:34:50.901Z,26.40
2022-08-02T08:38:53.149Z,26.69
2022-08-02T08:42:55.245Z,27.01
2022-08-02T08:46:58.461Z,27.31
2022-08-02T08:51:21.395Z,27.46
2022-08-02T08:55:25.319Z,27.65
2022-08-02T08:59:27.429Z,27.81
2022-08-02T09:03:33.911Z,27.94
2022-08-02T09:07:36.489Z,27.93
2022-08-02T09:11:38.717Z,27.97
2022-08-02T09:15:41.442Z,28.06
2022-08-02T09:19:45.773Z,28.08
2022-08-02T09:23:51.073Z,27.82
2022-08-02T09:28:08.249Z,27.98
2022-08-02T09:32:10.672Z,28.17
2022-08-02T09:36:15.812Z,27.94
2022-08-02T09:40:34.840Z,27.48
2022-08-02T09:44:37.563Z,27.07
2022-08-02T09:48:55.181Z,26.71
2022-08-02T09:52:57.958Z,26.98
2022-08-02T09:57:01.241Z,27.20
2022-08-02T10:01:03.664Z,27.52
2022-08-02T10:05:06.509Z,27.74
2022-08-02T10:09:12.257Z,27.81
2022-08-02T10:13:20.200Z,27.66
2022-08-02T10:17:24.909Z,27.67
2022-08-02T10:21:33.671Z,27.78
2022-08-02T10:25:38.245Z,27.94
2022-08-02T10:29:54.388Z,28.19
2022-08-02T10:34:01.250Z,28.42
2022-08-02T10:38:07.615Z,28.34
2022-08-02T10:42:10.655Z,28.13
2022-08-02T10:46:23.706Z,27.86
2022-08-02T10:50:52.493Z,27.85
2022-08-02T10:55:03.068Z,27.94
2022-08-02T10:59:35.002Z,28.41
2022-08-02T11:03:41.076Z,28.57
2022-08-02T11:07:49.307Z,28.52
2022-08-02T11:12:07.229Z,28.24
2022-08-02T11:16:11.818Z,28.04
2022-08-02T11:20:16.325Z,27.93
2022-08-02T11:24:27.888Z,28.03
2022-08-02T11:28:30.505Z,28.30
2022-08-02T11:32:35.753Z,28.17
2022-08-02T11:36:49.277Z,27.85
2022-08-02T11:40:57.292Z,27.88
2022-08-02T11:44:59.820Z,28.08
2022-08-02T11:49:34.977Z,28.38
2022-08-02T11:53:57.210Z,28.92
2022-08-02T11:58:04.110Z,29.02
2022-08-02T12:02:08.372Z,29.16
2022-08-02T12:06:16.415Z,28.85
2022-08-02T12:10:22.465Z,28.73
2022-08-02T12:14:28.725Z,28.64
2022-08-02T12:18:49.167Z,28.69
2022-08-02T12:22:51.344Z,28.88
2022-08-02T12:26:53.393Z,28.87
2022-08-02T12:30:57.964Z,28.90
2022-08-02T12:35:26.491Z,28.91
2022-08-02T12:39:45.686Z,28.43
2022-08-02T12:43:49.835Z,28.11
2022-08-02T12:47:58.479Z,27.91
2022-08-02T12:52:04.847Z,27.80
2022-08-02T12:56:08.797Z,27.75
2022-08-02T13:00:23.387Z,27.81
2022-08-02T13:04:25.684Z,27.71
2022-08-02T13:08:27.914Z,27.45
2022-08-02T13:12:30.050Z,27.20
2022-08-02T13:16:32.737Z,27.07
2022-08-02T13:20:34.896Z,26.85
2022-08-02T13:24:40.201Z,26.69
2022-08-02T13:28:57.550Z,26.83
2022-08-02T13:33:01.253Z,27.24
2022-08-02T13:37:04.321Z,27.70
2022-08-02T13:41:09.229Z,27.63
2022-08-02T13:45:13.264Z,27.51
2022-08-02T13:49:19.901Z,27.35
2022-08-02T13:53:23.046Z,27.24
2022-08-02T13:57:25.232Z,27.23
2022-08-02T14:01:27.414Z,27.18
2022-08-02T14:05:47.338Z,27.26
2022-08-02T14:09:50.326Z,27.29
2022-08-02T14:13:52.387Z,27.31
2022-08-02T14:17:54.648Z,27.13
2022-08-02T14:22:11.893Z,27.04
2022-08-02T14:26:16.058Z,26.91
2022-08-02T14:30:30.194Z,26.84
2022-08-02T14:34:32.719Z,26.89
2022-08-02T14:38:36.008Z,26.92
2022-08-02T14:42:38.172Z,26.80
2022-08-02T14:46:41.250Z,26.41
2022-08-02T14:50:43.415Z,26.20
2022-08-02T14:54:46.759Z,26.10
2022-08-02T14:58:49.039Z,26.04
2022-08-02T15:02:51.114Z,25.95
2022-08-02T15:06:54.027Z,25.96
2022-08-02T15:10:56.224Z,26.00
2022-08-02T15:14:59.819Z,26.00
2022-08-02T15:19:02.421Z,25.92
2022-08-02T15:23:09.204Z,25.91
2022-08-02T15:27:13.273Z,26.13
2022-08-02T15:31:22.623Z,26.39
2022-08-02T15:35:35.838Z,26.61
2022-08-02T15:39:38.325Z,26.72
2022-08-02T15:44:00.263Z,26.62
2022-08-02T15:48:03.980Z,26.66
2022-08-02T15:52:06.128Z,26.85
2022-08-02T15:56:12.787Z,26.90
2022-08-02T16:00:18.803Z,26.77
2022-08-02T16:04:21.347Z,26.70
2022-08-02T16:08:23.454Z,26.80
2022-08-02T16:12:32.101Z,26.70
2022-08-02T16:16:35.996Z,26.50
2022-08-02T16:20:38.212Z,26.29
2022-08-02T16:24:41.130Z,26.25
2022-08-02T16:28:43.266Z,26.20
2022-08-02T16:32:45.471Z,26.07
2022-08-02T16:36:47.649Z,25.88
2022-08-02T16:40:49.808Z,25.74
2022-08-02T16:44:53.459Z,25.60
2022-08-02T16:48:55.998Z,25.47
2022-08-02T16:52:58.860Z,25.43
2022-08-02T16:57:02.848Z,25.47
2022-08-02T17:01:05.616Z,25.46
2022-08-02T17:05:13.526Z,25.53
2022-08-02T17:10:01.622Z,25.57
2022-08-02T17:13:40.280Z,25.49
2022-08-02T17:17:43.254Z,25.32
2022-08-02T17:21:45.629Z,25.18
2022-08-02T17:25:52.727Z,25.05
2022-08-02T17:29:55.449Z,24.91
2022-08-02T17:33:58.507Z,24.81
2022-08-02T17:38:00.753Z,24.75
2022-08-02T17:42:04.660Z,24.79
2022-08-02T17:46:06.910Z,24.83
2022-08-02T17:50:12.277Z,24.84
2022-08-02T17:54:15.270Z,24.80
2022-08-02T17:58:20.913Z,24.71
2022-08-02T18:02:23.117Z,24.65
2022-08-02T18:06:26.218Z,24.60
2022-08-02T18:10:29.096Z,24.47
2022-08-02T18:14:31.429Z,24.32
2022-08-02T18:18:33.543Z,24.24
2022-08-02T18:22:37.979Z,24.19
2022-08-02T18:26:43.366Z,24.09
2022-08-02T18:30:45.807Z,23.97
2022-08-02T18:34:47.940Z,23.88
2022-08-02T18:38:50.069Z,23.76
2022-08-02T18:42:52.195Z,23.64
2022-08-02T18:46:54.484Z,23.58
2022-08-02T18:50:56.614Z,23.48
2022-08-02T18:54:58.792Z,23.34
2022-08-02T18:59:03.149Z,23.20
2022-08-02T19:03:05.500Z,23.08
2022-08-02T19:07:10.615Z,22.94
2022-08-02T19:11:14.002Z,22.78
2022-08-02T19:15:16.777Z,22.68
2022-08-02T19:19:20.066Z,22.58
2022-08-02T19:23:22.993Z,22.48
2022-08-02T19:27:25.878Z,22.50
2022-08-02T19:32:00.301Z,22.50
2022-08-02T19:36:06.093Z,22.40
2022-08-02T19:40:15.209Z,22.30
2022-08-02T19:44:24.291Z,22.18
2022-08-02T19:48:31.280Z,22.15
2022-08-02T19:52:34.897Z,22.08
2022-08-02T19:56:37.034Z,21.96
2022-08-02T20:00:41.968Z,21.84
2022-08-02T20:04:50.307Z,21.83
2022-08-02T20:08:57.161Z,21.83
2022-08-02T20:13:02.785Z,21.80
2022-08-02T20:17:10.890Z,21.68
2022-08-02T20:21:28.433Z,21.55
2022-08-02T20:25:35.164Z,21.40
2022-08-02T20:29:43.541Z,21.31
2022-08-02T20:33:56.277Z,21.21
2022-08-02T20:38:04.626Z,21.08
2022-08-02T20:42:22.557Z,20.91
2022-08-02T20:46:26.155Z,20.79
2022-08-02T20:50:46.674Z,20.86
2022-08-02T20:54:52.413Z,20.79
2022-08-02T20:58:54.875Z,20.56
2022-08-02T21:03:06.891Z,20.59
2022-08-02T21:07:11.580Z,20.65
2022-08-02T21:11:16.135Z,20.68
2022-08-02T21:15:18.291Z,20.65
2022-08-02T21:19:22.900Z,20.65
2022-08-02T21:23:28.137Z,20.64
2022-08-02T21:27:52.187Z,20.64
2022-08-02T21:31:55.933Z,20.63
2022-08-02T21:35:58.157Z,20.56
2022-08-02T21:40:00.341Z,20.50
2022-08-02T21:44:06.317Z,20.49
2022-08-02T21:48:08.923Z,20.55
2022-08-02T21:52:15.247Z,20.65
2022-08-02T21:56:18.682Z,20.64
2022-08-02T22:00:28.522Z,20.50
2022-08-02T22:04:31.349Z,20.29
2022-08-02T22:08:33.493Z,20.15
2022-08-02T22:12:38.158Z,20.22
2022-08-02T22:16:40.522Z,20.30
2022-08-02T22:20:43.660Z,20.31
2022-08-02T22:24:49.915Z,20.27
2022-08-02T22:28:56.177Z,20.18
2022-08-02T22:33:33.482Z,20.18
2022-08-02T22:38:17.625Z,20.18
2022-08-02T22:42:06.591Z,20.17
2022-08-02T22:46:15.404Z,20.15
2022-08-02T22:50:18.196Z,20.14
2022-08-02T22:54:21.368Z,20.10
2022-08-02T22:58:26.208Z,20.08
2022-08-02T23:02:28.296Z,19.98
2022-08-02T23:06:32.302Z,19.91
2022-08-02T23:10:34.528Z,19.90
2022-08-02T23:14:36.744Z,19.82
2022-08-02T23:18:57.661Z,19.64
2022-08-02T23:23:00.037Z,19.45
2022-08-02T23:27:02.361Z,19.36
2022-08-02T23:31:33.786Z,19.39
2022-08-02T23:35:40.440Z,19.42
2022-08-02T23:39:42.968Z,19.27
2022-08-02T23:44:03.852Z,19.08
2022-08-02T23:48:07.403Z,18.98
2022-08-02T23:52:09.554Z,18.99
2022-08-02T23:56:12.378Z,18.89
